Time;durP1;ratioP1;P1;durP2;ratioP2;P2;SDS_P1;SDS_P2;PMS_P1;PMS_P2;Temp;Humidity;BMP_temperature;BMP_pressure;BME280_temperature;BME280_humidity;BME280_pressure;Samples;Min_cycle;Max_cycle;Signal;HPM_P1;HPM_P2
2021/01/27 00:02:00;;;;;;;6.10;5.03;;;0.70;99.90;;;;;;5041645;28;20204;-51
2021/01/27 00:04:26;;;;;;;6.70;5.27;;;0.60;99.90;;;;;;5043766;28;20240;-49
2021/01/27 00:06:51;;;;;;;10.40;5.03;;;0.60;99.90;;;;;;5048369;28;20169;-50
2021/01/27 00:09:16;;;;;;;5.60;5.07;;;0.50;99.90;;;;;;5035697;28;20210;-48
2021/01/27 00:11:42;;;;;;;9.27;5.93;;;0.60;99.90;;;;;;5035088;28;20199;-52
2021/01/27 00:14:07;;;;;;;6.97;5.90;;;0.50;99.90;;;;;;5042867;28;20228;-46
2021/01/27 00:16:33;;;;;;;9.37;6.07;;;0.50;99.90;;;;;;5042453;28;20182;-52
2021/01/27 00:18:58;;;;;;;9.43;5.87;;;0.50;99.90;;;;;;5038394;28;20259;-45
2021/01/27 00:21:24;;;;;;;7.23;5.13;;;0.60;99.90;;;;;;5040016;28;20178;-47
2021/01/27 00:23:49;;;;;;;8.80;5.67;;;0.50;99.90;;;;;;5028437;28;20945;-48
2021/01/27 00:26:15;;;;;;;8.10;6.83;;;0.40;99.90;;;;;;5047068;28;20216;-48
2021/01/27 00:28:40;;;;;;;9.17;5.67;;;0.40;99.90;;;;;;5035320;28;20792;-54
2021/01/27 00:31:06;;;;;;;8.60;6.00;;;0.40;99.90;;;;;;5042192;28;20210;-47
2021/01/27 00:33:31;;;;;;;8.50;5.67;;;0.40;99.90;;;;;;5043114;28;20206;-50
2021/01/27 00:35:56;;;;;;;9.27;6.80;;;0.30;99.90;;;;;;5045610;28;20380;-49
2021/01/27 00:38:25;;;;;;;10.67;7.40;;;0.30;99.90;;;;;;5044272;28;20181;-49
2021/01/27 00:40:52;;;;;;;10.00;6.83;;;0.30;99.90;;;;;;5030471;28;20194;-51
2021/01/27 00:43:18;;;;;;;10.53;6.77;;;0.30;99.90;;;;;;5036793;28;20186;-50
2021/01/27 00:45:43;;;;;;;10.77;6.63;;;0.30;99.90;;;;;;5039840;28;20214;-52
2021/01/27 00:48:10;;;;;;;11.47;6.60;;;0.30;99.90;;;;;;5044349;28;20203;-53
2021/01/27 00:50:35;;;;;;;10.23;7.13;;;0.30;99.90;;;;;;5042132;28;20300;-49
2021/01/27 00:53:01;;;;;;;12.03;7.77;;;0.30;99.90;;;;;;5041798;28;20300;-51
2021/01/27 00:55:29;;;;;;;16.37;7.87;;;0.30;99.90;;;;;;5037418;28;20209;-55
2021/01/27 00:57:55;;;;;;;12.37;7.60;;;0.30;99.90;;;;;;5039297;28;20932;-47
2021/01/27 01:00:22;;;;;;;9.50;6.83;;;0.30;99.90;;;;;;5037047;28;20239;-48
2021/01/27 01:02:48;;;;;;;14.10;8.77;;;0.30;99.90;;;;;;5039157;28;20264;-49
2021/01/27 01:05:18;;;;;;;11.63;8.03;;;0.30;99.90;;;;;;5049034;28;20287;-51
2021/01/27 01:07:46;;;;;;;14.50;9.40;;;0.30;99.90;;;;;;5043435;28;20180;-50
2021/01/27 01:10:19;;;;;;;10.83;8.03;;;0.30;99.90;;;;;;5043526;28;20231;-49
2021/01/27 01:12:44;;;;;;;13.27;9.37;;;0.30;99.90;;;;;;5030311;28;20194;-51
2021/01/27 01:15:10;;;;;;;11.93;8.97;;;0.30;99.90;;;;;;5035617;28;20211;-50
2021/01/27 01:17:35;;;;;;;14.03;8.67;;;0.20;99.90;;;;;;5041748;28;20185;-51
2021/01/27 01:20:01;;;;;;;17.90;10.43;;;0.30;99.90;;;;;;5040810;28;20168;-47
2021/01/27 01:22:26;;;;;;;12.47;9.70;;;0.30;99.90;;;;;;5039153;28;20229;-53
2021/01/27 01:24:52;;;;;;;16.33;10.60;;;0.30;99.90;;;;;;5038688;28;20207;-50
2021/01/27 01:27:17;;;;;;;13.47;10.10;;;0.30;99.90;;;;;;5031281;28;20245;-49
2021/01/27 01:29:43;;;;;;;15.23;11.23;;;0.40;99.90;;;;;;5034856;28;20202;-46
2021/01/27 01:32:08;;;;;;;16.33;10.80;;;0.40;99.90;;;;;;5037319;28;20266;-49
2021/01/27 01:34:34;;;;;;;15.33;10.43;;;0.40;99.90;;;;;;5040343;28;20662;-50
2021/01/27 01:36:59;;;;;;;19.50;11.53;;;0.50;99.90;;;;;;5052501;28;20238;-50
2021/01/27 01:39:25;;;;;;;17.83;11.97;;;0.50;99.90;;;;;;5043172;28;20214;-51
2021/01/27 01:41:50;;;;;;;18.73;12.40;;;0.50;99.90;;;;;;5034314;28;20276;-54
2021/01/27 01:44:16;;;;;;;16.77;11.53;;;0.60;99.90;;;;;;5046932;28;20186;-51
2021/01/27 01:46:41;;;;;;;17.97;12.10;;;0.60;99.90;;;;;;5032798;28;20210;-52
2021/01/27 01:49:10;;;;;;;16.53;11.87;;;0.70;99.90;;;;;;5041599;28;20203;-50
2021/01/27 01:51:55;;;;;;;17.60;12.30;;;0.70;99.90;;;;;;5036471;28;20344;-48
2021/01/27 01:54:40;;;;;;;17.83;11.90;;;0.70;99.90;;;;;;5042556;28;20222;-49
2021/01/27 01:57:17;;;;;;;19.10;11.37;;;0.80;99.90;;;;;;5032284;28;20291;-52
2021/01/27 01:59:51;;;;;;;18.93;12.40;;;0.80;99.90;;;;;;5044404;28;20180;-46
2021/01/27 02:02:17;;;;;;;19.03;11.67;;;0.90;99.90;;;;;;5043308;28;20547;-50
2021/01/27 02:04:58;;;;;;;17.43;12.07;;;0.90;99.90;;;;;;5044508;28;20206;-52
2021/01/27 02:07:24;;;;;;;22.73;12.70;;;0.90;99.90;;;;;;5049305;28;20182;-46
2021/01/27 02:09:49;;;;;;;24.17;12.33;;;0.90;99.90;;;;;;5041684;28;20202;-46
2021/01/27 02:12:29;;;;;;;17.93;12.83;;;0.90;99.90;;;;;;5045987;28;20194;-45
2021/01/27 02:15:09;;;;;;;19.33;12.53;;;1.00;99.90;;;;;;5033446;28;20201;-48
2021/01/27 02:17:41;;;;;;;22.37;12.03;;;1.00;99.90;;;;;;5038468;28;20535;-50
2021/01/27 02:20:56;;;;;;;22.77;12.70;;;1.00;99.90;;;;;;5045278;28;20186;-48
2021/01/27 02:23:59;;;;;;;22.90;12.43;;;1.00;99.90;;;;;;5042142;28;20183;-47
2021/01/27 02:26:43;;;;;;;20.40;12.70;;;1.00;99.90;;;;;;5044818;28;20191;-52
2021/01/27 02:29:38;;;;;;;23.27;12.80;;;1.00;99.90;;;;;;5037315;28;20217;-51
2021/01/27 02:32:28;;;;;;;18.83;11.70;;;1.00;99.90;;;;;;5032459;28;20843;-52
2021/01/27 02:35:14;;;;;;;15.57;11.60;;;1.00;99.90;;;;;;5044513;28;20346;-49
2021/01/27 02:37:48;;;;;;;20.20;12.70;;;1.00;99.90;;;;;;5051345;28;20181;-55
2021/01/27 02:40:27;;;;;;;19.07;11.07;;;1.00;99.90;;;;;;5039445;28;20181;-48
2021/01/27 02:43:06;;;;;;;24.73;13.13;;;1.00;99.90;;;;;;5037747;28;20939;-49
2021/01/27 02:45:36;;;;;;;20.07;11.97;;;1.00;99.90;;;;;;5035081;28;20219;-52
2021/01/27 02:48:18;;;;;;;20.83;12.17;;;1.00;99.90;;;;;;5027730;28;20258;-50
2021/01/27 02:50:56;;;;;;;20.73;12.97;;;1.00;99.90;;;;;;5043265;28;20217;-48
2021/01/27 02:53:28;;;;;;;14.23;11.13;;;1.00;99.90;;;;;;5040366;28;20213;-50
2021/01/27 02:56:21;;;;;;;23.07;13.47;;;1.00;99.90;;;;;;5042551;28;20209;-48
2021/01/27 02:59:11;;;;;;;22.73;13.03;;;1.00;99.90;;;;;;5040535;28;20208;-51
2021/01/27 03:01:46;;;;;;;24.30;13.07;;;1.00;99.90;;;;;;5031875;28;20662;-46
2021/01/27 03:04:21;;;;;;;22.37;12.97;;;1.00;99.90;;;;;;5040219;28;20191;-51
2021/01/27 03:06:48;;;;;;;18.77;12.13;;;1.00;99.90;;;;;;5045034;28;20250;-48
2021/01/27 03:09:21;;;;;;;20.63;13.20;;;1.00;99.90;;;;;;5049683;28;20189;-50
2021/01/27 03:11:48;;;;;;;21.67;13.33;;;1.00;99.90;;;;;;5041784;28;20210;-53
2021/01/27 03:14:14;;;;;;;22.33;13.37;;;1.00;99.90;;;;;;5046068;28;20189;-50
2021/01/27 03:16:45;;;;;;;20.90;13.47;;;1.00;99.90;;;;;;5032429;28;20586;-49
2021/01/27 03:19:22;;;;;;;15.87;12.53;;;1.00;99.90;;;;;;5036271;28;20190;-52
2021/01/27 03:21:54;;;;;;;21.07;13.00;;;1.00;99.90;;;;;;5042501;28;20189;-52
2021/01/27 03:24:23;;;;;;;19.10;12.10;;;1.00;99.90;;;;;;5045835;28;20301;-53
2021/01/27 03:27:04;;;;;;;20.37;12.70;;;1.00;99.90;;;;;;5041670;28;20179;-51
2021/01/27 03:29:43;;;;;;;24.23;12.30;;;1.00;99.90;;;;;;5044529;28;20595;-52
2021/01/27 03:32:36;;;;;;;24.87;13.60;;;1.10;99.90;;;;;;5034350;28;20201;-49
2021/01/27 03:35:29;;;;;;;21.30;12.13;;;1.10;99.90;;;;;;5037565;28;20205;-47
2021/01/27 03:38:00;;;;;;;18.83;13.20;;;1.10;99.90;;;;;;5044411;28;20170;-49
2021/01/27 03:40:27;;;;;;;23.30;13.07;;;1.10;99.90;;;;;;5045131;28;20189;-51
2021/01/27 03:43:15;;;;;;;24.70;14.73;;;1.10;99.90;;;;;;5041809;28;20181;-50
2021/01/27 03:45:48;;;;;;;24.53;13.30;;;1.10;99.90;;;;;;5041761;28;20297;-49
2021/01/27 03:48:27;;;;;;;21.57;14.07;;;1.10;99.90;;;;;;5038392;28;20198;-52
2021/01/27 03:50:56;;;;;;;28.53;14.37;;;1.10;99.90;;;;;;5034674;28;20201;-52
2021/01/27 03:53:25;;;;;;;21.33;14.33;;;1.10;99.90;;;;;;5041235;28;20184;-51
2021/01/27 03:55:56;;;;;;;23.63;14.80;;;1.10;99.90;;;;;;5040204;28;20280;-48
2021/01/27 03:58:35;;;;;;;25.27;15.37;;;1.10;99.90;;;;;;5043945;28;20781;-48
2021/01/27 04:01:13;;;;;;;24.33;15.03;;;1.10;99.90;;;;;;5041638;28;20178;-52
2021/01/27 04:03:39;;;;;;;22.07;14.53;;;1.20;99.90;;;;;;5036531;28;20287;-47
2021/01/27 04:06:06;;;;;;;25.40;14.60;;;1.20;99.90;;;;;;5036747;28;20206;-52
2021/01/27 04:08:32;;;;;;;25.37;15.03;;;1.20;99.90;;;;;;5047119;28;20194;-50
2021/01/27 04:10:59;;;;;;;22.97;14.47;;;1.20;99.90;;;;;;5040871;28;20214;-53
2021/01/27 04:13:25;;;;;;;22.73;14.73;;;1.20;99.90;;;;;;5044072;28;20182;-50
2021/01/27 04:15:50;;;;;;;29.33;16.03;;;1.20;99.90;;;;;;5040822;28;20281;-53
2021/01/27 04:18:15;;;;;;;36.33;17.13;;;1.20;99.90;;;;;;5032728;28;20292;-51
2021/01/27 04:20:41;;;;;;;29.07;15.93;;;1.20;99.90;;;;;;5037720;28;20197;-48
2021/01/27 04:23:06;;;;;;;37.60;18.43;;;1.30;99.90;;;;;;5041633;28;20208;-49
2021/01/27 04:25:32;;;;;;;25.00;16.30;;;1.30;99.90;;;;;;5042292;28;20263;-53
2021/01/27 04:27:58;;;;;;;29.73;17.53;;;1.30;99.90;;;;;;5041025;28;20188;-49
2021/01/27 04:30:30;;;;;;;35.30;17.47;;;1.30;99.90;;;;;;5044947;28;20222;-55
2021/01/27 04:32:57;;;;;;;49.20;20.23;;;1.30;99.90;;;;;;5032182;28;21902;-51
2021/01/27 04:35:23;;;;;;;30.43;17.80;;;1.30;99.90;;;;;;5046939;28;20202;-53
2021/01/27 04:37:49;;;;;;;33.67;19.03;;;1.30;99.90;;;;;;5033993;28;20177;-51
2021/01/27 04:40:26;;;;;;;34.80;19.27;;;1.30;99.90;;;;;;5043839;28;20610;-53
2021/01/27 04:42:52;;;;;;;32.60;16.63;;;1.40;99.90;;;;;;5040338;28;20974;-46
2021/01/27 04:45:19;;;;;;;38.80;18.23;;;1.40;99.90;;;;;;5043254;28;20344;-49
2021/01/27 04:47:57;;;;;;;28.83;17.37;;;1.40;99.90;;;;;;5029594;28;20565;-52
2021/01/27 04:50:36;;;;;;;68.63;23.03;;;1.40;99.90;;;;;;5042822;28;20658;-49
2021/01/27 04:53:26;;;;;;;35.90;19.03;;;1.40;99.90;;;;;;5030515;28;23015;-48
2021/01/27 04:56:02;;;;;;;38.97;19.17;;;1.50;99.90;;;;;;5039145;28;20198;-45
2021/01/27 04:58:58;;;;;;;41.40;20.23;;;1.50;99.90;;;;;;5042849;28;20178;-51
2021/01/27 05:01:47;;;;;;;39.07;19.97;;;1.50;99.90;;;;;;5039663;28;20194;-46
2021/01/27 05:04:23;;;;;;;36.77;19.47;;;1.50;99.90;;;;;;5036427;28;20201;-54
2021/01/27 05:06:56;;;;;;;38.73;19.67;;;1.50;99.90;;;;;;5040448;28;20196;-50
2021/01/27 05:09:30;;;;;;;42.03;20.90;;;1.50;99.90;;;;;;5038531;28;20615;-47
2021/01/27 05:11:58;;;;;;;63.83;24.33;;;1.50;99.90;;;;;;5040024;28;20182;-51
2021/01/27 05:14:25;;;;;;;45.13;21.37;;;1.50;99.90;;;;;;5042825;28;20205;-47
2021/01/27 05:16:51;;;;;;;47.13;24.10;;;1.60;99.90;;;;;;5039212;28;20176;-48
2021/01/27 05:19:17;;;;;;;37.17;21.47;;;1.60;99.90;;;;;;5042850;28;20183;-47
2021/01/27 05:21:49;;;;;;;36.30;21.67;;;1.60;99.90;;;;;;5021776;28;20195;-52
2021/01/27 05:24:15;;;;;;;47.30;22.57;;;1.60;99.90;;;;;;5036279;28;20580;-51
2021/01/27 05:27:16;;;;;;;49.03;23.07;;;1.60;99.90;;;;;;5039662;28;20187;-52
2021/01/27 05:29:45;;;;;;;48.77;22.57;;;1.60;99.90;;;;;;5036927;28;20240;-53
2021/01/27 05:32:19;;;;;;;48.10;21.53;;;1.70;99.90;;;;;;5037143;28;20191;-50
2021/01/27 05:34:53;;;;;;;37.80;22.53;;;1.70;99.90;;;;;;5026898;28;20207;-51
2021/01/27 05:37:31;;;;;;;61.50;25.53;;;1.70;99.90;;;;;;5039427;28;20278;-45
2021/01/27 05:40:25;;;;;;;36.20;22.83;;;1.70;99.90;;;;;;5037814;28;20197;-46
2021/01/27 05:42:50;;;;;;;50.83;23.40;;;1.70;99.90;;;;;;5037589;28;20285;-53
2021/01/27 05:45:36;;;;;;;48.60;24.00;;;1.70;99.90;;;;;;5048536;28;20562;-52
2021/01/27 05:48:13;;;;;;;53.93;24.43;;;1.80;99.90;;;;;;5041618;28;20232;-47
2021/01/27 05:50:42;;;;;;;57.67;26.17;;;1.80;99.90;;;;;;5036412;28;20203;-52
2021/01/27 05:53:23;;;;;;;51.00;24.80;;;1.80;99.90;;;;;;5041154;28;20265;-47
2021/01/27 05:56:03;;;;;;;57.83;26.47;;;1.80;99.90;;;;;;5036486;28;20206;-50
2021/01/27 05:58:32;;;;;;;45.77;23.20;;;1.80;99.90;;;;;;5045468;28;20210;-49
2021/01/27 06:01:16;;;;;;;40.90;23.03;;;1.80;99.90;;;;;;5044471;28;20277;-48
2021/01/27 06:03:57;;;;;;;36.13;22.77;;;1.90;99.90;;;;;;5043154;28;20190;-48
2021/01/27 06:06:24;;;;;;;38.63;22.40;;;1.80;99.90;;;;;;5039733;28;20205;-47
2021/01/27 06:08:52;;;;;;;40.07;22.23;;;1.90;99.90;;;;;;5042831;28;20187;-45
2021/01/27 06:11:19;;;;;;;37.77;23.33;;;1.80;99.90;;;;;;5036435;28;20207;-47
2021/01/27 06:13:46;;;;;;;42.17;23.30;;;1.90;99.90;;;;;;5041052;28;20197;-50
2021/01/27 06:16:18;;;;;;;43.23;23.60;;;1.90;99.90;;;;;;5045917;28;20210;-48
2021/01/27 06:18:44;;;;;;;41.00;22.77;;;1.90;99.90;;;;;;5042216;28;20179;-55
2021/01/27 06:21:45;;;;;;;34.33;21.93;;;1.90;99.90;;;;;;5045072;28;20174;-47
2021/01/27 06:24:29;;;;;;;46.07;24.00;;;1.90;99.90;;;;;;5044377;28;20202;-46
2021/01/27 06:27:43;;;;;;;50.23;24.67;;;1.90;99.90;;;;;;5036616;28;20190;-45
2021/01/27 06:30:26;;;;;;;46.60;23.77;;;1.90;99.90;;;;;;5043820;28;20206;-46
2021/01/27 06:33:13;;;;;;;40.83;23.73;;;1.90;99.90;;;;;;5034349;28;20186;-48
2021/01/27 06:36:18;;;;;;;34.30;21.53;;;1.90;99.90;;;;;;5041016;28;20218;-50
2021/01/27 06:39:02;;;;;;;35.27;21.63;;;1.90;99.90;;;;;;5030103;28;20288;-48
2021/01/27 06:41:55;;;;;;;34.33;20.83;;;1.90;99.90;;;;;;5032810;28;20835;-48
2021/01/27 06:44:44;;;;;;;42.87;24.87;;;1.90;99.90;;;;;;5032369;28;20206;-47
2021/01/27 06:47:31;;;;;;;48.87;23.90;;;1.90;99.90;;;;;;5033641;28;20212;-52
2021/01/27 06:50:05;;;;;;;53.33;24.60;;;1.90;99.90;;;;;;5044692;28;20213;-49
2021/01/27 06:52:50;;;;;;;46.43;24.27;;;1.90;99.90;;;;;;5022092;28;20193;-48
2021/01/27 06:55:42;;;;;;;47.57;24.90;;;1.90;99.90;;;;;;5037031;28;20203;-48
2021/01/27 06:58:34;;;;;;;54.83;24.23;;;1.90;99.90;;;;;;5046539;28;20186;-51
2021/01/27 07:01:28;;;;;;;43.70;22.40;;;1.90;99.90;;;;;;5042667;28;20708;-53
2021/01/27 07:04:25;;;;;;;42.67;23.77;;;1.90;99.90;;;;;;5046082;28;20222;-52
2021/01/27 07:07:10;;;;;;;42.77;22.27;;;1.90;99.90;;;;;;5045619;28;20194;-50
2021/01/27 07:09:41;;;;;;;35.60;22.20;;;1.90;99.90;;;;;;5035889;28;20222;-50
2021/01/27 07:12:16;;;;;;;40.43;22.73;;;1.90;99.90;;;;;;5028036;28;20945;-48
2021/01/27 07:14:54;;;;;;;37.23;21.70;;;1.90;99.90;;;;;;5039025;28;20209;-51
2021/01/27 07:17:43;;;;;;;43.57;22.83;;;1.90;99.90;;;;;;5043039;28;20303;-51
2021/01/27 07:20:20;;;;;;;47.20;22.33;;;1.90;99.90;;;;;;5033387;28;20292;-50
2021/01/27 07:23:07;;;;;;;37.13;22.57;;;1.90;99.90;;;;;;5034869;28;20195;-46
2021/01/27 07:25:45;;;;;;;43.83;23.07;;;1.90;99.90;;;;;;5030813;28;20302;-48
2021/01/27 07:28:32;;;;;;;47.53;22.67;;;1.90;99.90;;;;;;5044846;28;20194;-52
2021/01/27 07:31:15;;;;;;;42.50;22.63;;;1.90;99.90;;;;;;5034941;28;20218;-46
2021/01/27 07:33:55;;;;;;;47.50;23.67;;;1.90;99.90;;;;;;5024847;28;20179;-55
2021/01/27 07:36:41;;;;;;;35.57;21.00;;;1.90;99.90;;;;;;5043360;28;20207;-49
2021/01/27 07:39:32;;;;;;;38.77;21.23;;;1.90;99.90;;;;;;5024819;28;20226;-46
2021/01/27 07:42:02;;;;;;;39.37;21.87;;;1.90;99.90;;;;;;5032650;28;20252;-49
2021/01/27 07:44:29;;;;;;;40.60;20.67;;;1.90;99.90;;;;;;5032337;28;20234;-48
2021/01/27 07:47:20;;;;;;;38.10;22.07;;;1.90;99.90;;;;;;5027953;28;20179;-50
2021/01/27 07:49:55;;;;;;;34.60;20.93;;;1.80;99.90;;;;;;5021896;28;20187;-47
2021/01/27 07:52:28;;;;;;;37.70;21.60;;;1.90;99.90;;;;;;5038498;28;20178;-52
2021/01/27 07:55:18;;;;;;;36.80;22.13;;;1.80;99.90;;;;;;5020146;28;21472;-51
2021/01/27 07:57:53;;;;;;;35.77;21.17;;;1.80;99.90;;;;;;5036575;28;20262;-52
2021/01/27 08:00:37;;;;;;;38.17;21.17;;;1.80;99.90;;;;;;5034526;28;20190;-51
2021/01/27 08:03:40;;;;;;;36.13;21.20;;;1.80;99.90;;;;;;5037632;28;20999;-53
2021/01/27 08:06:10;;;;;;;36.37;21.47;;;1.80;99.90;;;;;;5036791;28;20195;-53
2021/01/27 08:08:49;;;;;;;35.27;20.37;;;1.80;99.90;;;;;;5024596;28;20194;-53
2021/01/27 08:11:20;;;;;;;33.07;19.83;;;1.80;99.90;;;;;;5030105;28;20230;-52
2021/01/27 08:13:46;;;;;;;34.17;20.30;;;1.80;99.90;;;;;;5035770;28;20269;-51
2021/01/27 08:16:14;;;;;;;35.23;20.30;;;1.80;99.90;;;;;;5043308;28;20278;-45
2021/01/27 08:19:06;;;;;;;32.03;20.10;;;1.80;99.90;;;;;;5034199;28;20198;-52
2021/01/27 08:21:58;;;;;;;35.33;20.10;;;1.80;99.90;;;;;;5036846;28;20731;-49
2021/01/27 08:24:35;;;;;;;29.60;18.50;;;1.80;99.90;;;;;;5036067;28;20241;-50
2021/01/27 08:27:10;;;;;;;30.70;19.70;;;1.80;99.90;;;;;;5027097;28;20327;-49
2021/01/27 08:29:55;;;;;;;32.13;18.93;;;1.80;99.90;;;;;;5035554;28;20683;-51
2021/01/27 08:32:30;;;;;;;31.10;18.93;;;1.80;99.90;;;;;;5033142;28;20712;-51
2021/01/27 08:35:08;;;;;;;30.97;19.47;;;1.80;99.90;;;;;;5041117;28;20201;-48
2021/01/27 08:37:39;;;;;;;32.00;19.23;;;1.90;99.90;;;;;;5036409;28;20191;-51
2021/01/27 08:40:43;;;;;;;30.20;19.10;;;2.00;99.90;;;;;;5042874;28;20277;-51
2021/01/27 08:43:14;;;;;;;29.90;18.67;;;2.00;99.90;;;;;;5045618;28;20671;-52
2021/01/27 08:45:40;;;;;;;33.47;18.97;;;2.10;99.90;;;;;;5031749;28;20260;-51
2021/01/27 08:48:06;;;;;;;33.53;18.97;;;2.20;99.90;;;;;;5036348;28;20667;-51
2021/01/27 08:50:52;;;;;;;42.77;21.67;;;2.20;99.90;;;;;;5040620;28;20210;-51
2021/01/27 08:53:24;;;;;;;34.10;19.53;;;2.30;99.90;;;;;;5041567;28;20730;-48
2021/01/27 08:55:58;;;;;;;27.77;17.43;;;2.40;99.90;;;;;;5028437;28;20370;-50
2021/01/27 08:58:35;;;;;;;26.83;17.77;;;2.40;99.90;;;;;;5043145;28;20257;-48
2021/01/27 09:01:26;;;;;;;28.70;17.60;;;2.50;99.90;;;;;;5039028;28;20179;-50
2021/01/27 09:03:59;;;;;;;25.70;16.80;;;2.50;99.90;;;;;;5037440;28;23195;-52
2021/01/27 09:06:41;;;;;;;35.10;19.30;;;2.60;99.90;;;;;;5040312;28;20203;-52
2021/01/27 09:09:22;;;;;;;33.30;18.30;;;2.70;99.90;;;;;;5045623;28;20686;-47
2021/01/27 09:11:47;;;;;;;25.67;15.07;;;2.80;99.90;;;;;;5031889;28;21070;-46
2021/01/27 09:14:15;;;;;;;25.93;15.63;;;2.90;99.90;;;;;;5052046;28;20655;-49
2021/01/27 09:16:43;;;;;;;24.70;14.20;;;2.90;99.90;;;;;;5043241;28;20648;-50
2021/01/27 09:19:19;;;;;;;28.23;17.27;;;3.10;99.90;;;;;;5034816;28;20234;-53
2021/01/27 09:22:01;;;;;;;19.77;14.50;;;3.20;99.90;;;;;;5038887;28;20241;-47
2021/01/27 09:24:32;;;;;;;22.43;14.60;;;3.20;99.90;;;;;;5037570;28;20799;-51
2021/01/27 09:26:58;;;;;;;27.07;14.73;;;3.20;99.90;;;;;;5041430;28;20187;-48
2021/01/27 09:29:29;;;;;;;26.83;14.33;;;3.20;99.90;;;;;;5039289;28;20191;-45
2021/01/27 09:31:56;;;;;;;15.73;12.40;;;3.20;99.90;;;;;;5046826;28;20203;-47
2021/01/27 09:34:31;;;;;;;30.70;14.03;;;3.20;99.90;;;;;;5035559;28;20992;-44
2021/01/27 09:37:03;;;;;;;21.13;13.33;;;3.20;99.90;;;;;;5045215;28;20195;-54
2021/01/27 09:39:35;;;;;;;25.77;15.20;;;3.30;99.90;;;;;;5034656;28;20195;-51
2021/01/27 09:42:14;;;;;;;20.80;13.30;;;3.30;99.90;;;;;;5043932;28;20179;-52
2021/01/27 09:44:40;;;;;;;25.60;13.63;;;3.40;99.90;;;;;;5044804;28;20257;-46
2021/01/27 09:47:11;;;;;;;18.70;12.17;;;3.40;99.90;;;;;;5044148;28;20225;-49
2021/01/27 09:49:49;;;;;;;17.17;11.43;;;3.50;99.90;;;;;;5044351;28;20191;-47
2021/01/27 09:52:16;;;;;;;16.63;10.73;;;3.50;99.90;;;;;;5018660;28;20194;-49
2021/01/27 09:54:45;;;;;;;20.17;12.07;;;3.60;99.90;;;;;;5042567;28;20676;-45
2021/01/27 09:57:13;;;;;;;17.83;11.30;;;3.60;99.90;;;;;;5040350;28;20211;-52
2021/01/27 09:59:40;;;;;;;14.57;10.70;;;3.60;99.90;;;;;;5026788;28;20191;-47
2021/01/27 10:02:10;;;;;;;22.73;12.33;;;3.70;99.90;;;;;;5036921;28;20182;-56
2021/01/27 10:04:38;;;;;;;18.50;11.17;;;3.70;99.90;;;;;;5044835;28;20206;-48
2021/01/27 10:07:14;;;;;;;17.43;11.07;;;3.70;99.90;;;;;;5035250;28;20307;-50
2021/01/27 10:09:49;;;;;;;14.80;9.83;;;3.70;99.90;;;;;;5040940;28;20183;-53
2021/01/27 10:12:25;;;;;;;16.37;10.03;;;3.80;99.90;;;;;;5042682;28;20203;-51
2021/01/27 10:15:01;;;;;;;16.73;9.47;;;3.80;99.90;;;;;;5035815;28;20258;-54
2021/01/27 10:17:30;;;;;;;18.03;10.33;;;3.80;99.90;;;;;;5033532;28;20167;-56
2021/01/27 10:20:29;;;;;;;17.90;9.90;;;3.80;99.90;;;;;;5043713;28;20644;-51
2021/01/27 10:23:00;;;;;;;16.20;8.87;;;3.80;99.90;;;;;;5041151;28;20199;-53
2021/01/27 10:25:33;;;;;;;15.93;10.13;;;3.70;99.90;;;;;;5034241;28;20191;-50
2021/01/27 10:28:13;;;;;;;16.90;9.43;;;3.70;99.90;;;;;;5039793;28;20175;-56
2021/01/27 10:30:50;;;;;;;13.97;10.07;;;3.70;99.90;;;;;;5040196;28;20198;-47
2021/01/27 10:33:42;;;;;;;9.90;7.83;;;3.70;99.90;;;;;;5042717;28;20178;-56
2021/01/27 10:36:31;;;;;;;18.30;9.83;;;3.70;99.90;;;;;;5031939;28;20326;-55
2021/01/27 10:39:23;;;;;;;17.60;9.70;;;3.70;99.90;;;;;;5032013;28;20191;-47
2021/01/27 10:42:23;;;;;;;18.40;8.77;;;3.80;99.90;;;;;;5040515;28;20173;-50
2021/01/27 10:45:13;;;;;;;11.57;7.70;;;3.80;99.90;;;;;;5033817;28;20238;-51
2021/01/27 10:47:39;;;;;;;12.57;8.03;;;3.90;99.90;;;;;;5036088;28;20168;-46
2021/01/27 10:50:05;;;;;;;18.37;9.57;;;3.90;99.90;;;;;;5037124;28;20235;-56
2021/01/27 10:52:30;;;;;;;11.93;7.93;;;3.90;99.90;;;;;;5042290;28;20884;-47
2021/01/27 10:55:10;;;;;;;12.20;8.17;;;3.90;99.90;;;;;;5030574;28;20575;-48
2021/01/27 10:57:36;;;;;;;25.10;8.40;;;3.90;99.90;;;;;;5039658;28;20974;-53
2021/01/27 11:00:07;;;;;;;23.73;9.80;;;3.90;99.90;;;;;;5037136;28;20674;-50
2021/01/27 11:02:33;;;;;;;25.80;9.53;;;3.90;99.90;;;;;;5043036;28;20255;-50
2021/01/27 11:04:59;;;;;;;13.03;7.47;;;3.90;99.90;;;;;;5044810;28;20286;-49
2021/01/27 11:07:24;;;;;;;9.40;6.97;;;4.00;99.90;;;;;;5038284;28;20203;-51
2021/01/27 11:09:50;;;;;;;10.37;7.30;;;4.10;99.90;;;;;;5035993;28;20211;-55
2021/01/27 11:12:15;;;;;;;17.30;8.67;;;4.10;99.90;;;;;;5038395;28;20546;-51
2021/01/27 11:14:41;;;;;;;18.03;9.57;;;4.10;99.90;;;;;;5044668;28;20704;-46
2021/01/27 11:17:06;;;;;;;18.07;8.67;;;4.20;99.90;;;;;;5031582;28;20195;-56
2021/01/27 11:19:31;;;;;;;12.37;7.73;;;4.10;99.90;;;;;;5038054;28;20818;-48
2021/01/27 11:21:57;;;;;;;11.70;6.90;;;4.20;99.90;;;;;;5045519;28;20178;-51
2021/01/27 11:24:23;;;;;;;18.93;8.67;;;4.20;99.90;;;;;;5033411;28;20199;-51
2021/01/27 11:26:48;;;;;;;12.53;7.53;;;4.10;99.90;;;;;;5036577;28;20601;-54
2021/01/27 11:29:14;;;;;;;10.03;7.03;;;4.10;99.90;;;;;;5041044;28;20660;-50
2021/01/27 11:31:39;;;;;;;11.53;8.07;;;4.10;99.90;;;;;;5033108;28;20230;-52
2021/01/27 11:34:05;;;;;;;18.07;9.27;;;4.10;99.90;;;;;;5040259;28;20184;-52
2021/01/27 11:36:30;;;;;;;11.83;7.97;;;4.10;99.90;;;;;;5041594;28;20198;-48
2021/01/27 11:38:56;;;;;;;8.60;6.57;;;4.10;99.90;;;;;;5040902;28;20183;-49
2021/01/27 11:41:23;;;;;;;19.70;9.87;;;4.00;99.90;;;;;;5028740;28;20187;-46
2021/01/27 11:43:49;;;;;;;10.93;7.43;;;4.10;99.90;;;;;;5042361;28;20186;-50
2021/01/27 11:46:18;;;;;;;13.23;7.20;;;4.10;99.90;;;;;;5040535;28;20203;-51
2021/01/27 11:48:44;;;;;;;10.53;6.90;;;4.10;99.90;;;;;;5034702;28;20199;-46
2021/01/27 11:51:11;;;;;;;8.63;7.03;;;4.10;99.90;;;;;;5042041;28;20261;-48
2021/01/27 11:53:37;;;;;;;10.63;7.50;;;4.10;99.90;;;;;;5041365;28;20202;-46
2021/01/27 11:56:03;;;;;;;9.10;6.50;;;4.10;99.90;;;;;;5034867;28;20203;-51
2021/01/27 11:58:30;;;;;;;10.10;6.77;;;4.20;99.90;;;;;;5030131;28;20180;-47
2021/01/27 12:00:56;;;;;;;11.07;6.90;;;4.30;99.90;;;;;;5044972;28;20179;-53
2021/01/27 12:03:22;;;;;;;10.03;6.50;;;4.30;99.90;;;;;;5028367;28;20190;-51
2021/01/27 12:05:47;;;;;;;11.47;7.53;;;4.30;99.90;;;;;;5042730;28;20212;-48
2021/01/27 12:08:15;;;;;;;9.43;6.33;;;4.40;99.90;;;;;;5041341;28;20187;-49
2021/01/27 12:10:41;;;;;;;9.27;5.80;;;4.40;99.90;;;;;;5037516;28;20218;-51
2021/01/27 12:13:06;;;;;;;7.40;5.70;;;4.40;99.90;;;;;;5040988;28;20184;-50
2021/01/27 12:15:32;;;;;;;14.10;7.27;;;4.50;99.90;;;;;;5035998;28;20210;-52
2021/01/27 12:17:58;;;;;;;7.80;5.53;;;4.50;99.90;;;;;;5039525;28;20186;-49
2021/01/27 12:20:23;;;;;;;15.53;6.50;;;4.50;99.90;;;;;;5026377;28;20896;-51
2021/01/27 12:22:50;;;;;;;10.60;6.40;;;4.50;99.90;;;;;;5040629;28;20244;-51
2021/01/27 12:25:15;;;;;;;18.83;7.50;;;4.40;99.90;;;;;;5030605;28;20207;-48
2021/01/27 12:27:41;;;;;;;7.30;6.27;;;4.30;99.90;;;;;;5036945;28;20208;-49
2021/01/27 12:30:10;;;;;;;10.17;5.67;;;4.30;99.90;;;;;;5029127;28;20221;-49
2021/01/27 12:32:36;;;;;;;7.17;5.20;;;4.30;99.90;;;;;;5042804;28;20175;-50
2021/01/27 12:35:02;;;;;;;9.63;5.53;;;4.30;99.90;;;;;;5034703;28;20215;-48
2021/01/27 12:37:28;;;;;;;9.03;5.10;;;4.20;99.90;;;;;;5036082;28;20247;-48
2021/01/27 12:39:53;;;;;;;6.20;4.73;;;4.30;99.90;;;;;;5042401;28;20640;-47
2021/01/27 12:42:19;;;;;;;5.27;4.50;;;4.30;99.90;;;;;;5034762;28;20198;-53
2021/01/27 12:44:45;;;;;;;9.40;5.17;;;4.40;99.90;;;;;;5038732;28;20725;-48
2021/01/27 12:47:11;;;;;;;9.60;4.80;;;4.40;99.90;;;;;;5042553;28;20241;-48
2021/01/27 12:49:37;;;;;;;5.47;4.37;;;4.40;99.90;;;;;;5042637;28;20195;-55
2021/01/27 12:52:04;;;;;;;6.00;4.70;;;4.40;99.90;;;;;;5032237;28;20223;-51
2021/01/27 12:54:30;;;;;;;4.63;4.20;;;4.40;99.90;;;;;;5034560;28;20835;-51
2021/01/27 12:56:55;;;;;;;11.47;5.20;;;4.40;99.90;;;;;;5037669;28;20191;-52
2021/01/27 12:59:20;;;;;;;10.13;4.87;;;4.40;99.90;;;;;;5034374;28;20168;-49
2021/01/27 13:01:46;;;;;;;13.33;5.80;;;4.30;99.90;;;;;;5040987;28;20183;-46
2021/01/27 13:04:11;;;;;;;6.53;4.40;;;4.20;99.90;;;;;;5040517;28;20205;-54
2021/01/27 13:06:37;;;;;;;6.70;5.30;;;4.20;99.90;;;;;;5030942;28;20187;-47
2021/01/27 13:09:03;;;;;;;7.53;4.57;;;4.30;99.90;;;;;;5041558;28;20733;-56
2021/01/27 13:11:28;;;;;;;3.83;3.50;;;4.20;99.90;;;;;;5034441;28;20218;-53
2021/01/27 13:13:54;;;;;;;5.53;4.50;;;4.20;99.90;;;;;;5042983;28;20677;-46